Terminal Aerodrome Forecast
Issued by NWS

Home | Current Version | Previous Version | Text Only | Print | Product List | Glossary On
Versions: 1 2 3 4 5 6 7 8 9 10 11 12 13 14 15 16 17
450
FTUS46 KSEW 250758 AAA
TAFBLI
TAF AMD
KBLI 250758Z 2508/2606 16012KT P6SM VCSH SCT022 OVC045
      TEMPO 2508/2510 16012G22KT BKN022 OVC040
     FM251000 17013KT P6SM -SHRA BKN018 OVC035
     FM251400 17011KT P6SM VCSH BKN025 OVC050
     FM251800 19009KT P6SM VCSH SCT030 BKN050 PROB30 2518/2524 -SHRA
      BKN030 OVC050
     FM260000 17004KT P6SM FEW035 BKN060=

USA.gov is the U.S. government's official web portal to all federal, state and local government web resources and services.